sensor_id;sensor_type;location;lat;lon;timestamp;pressure;altitude;pressure_sealevel;temperature;humidity
14041;BME280;7095;51.388;6.196;2023-04-07T00:00:01;115728.34;;;-145.32;100.00
14041;BME280;7095;51.388;6.196;2023-04-07T00:02:37;115728.34;;;-145.32;100.00
14041;BME280;7095;51.388;6.196;2023-04-07T00:05:10;115728.34;;;-145.32;100.00
14041;BME280;7095;51.388;6.196;2023-04-07T00:07:39;115728.34;;;-145.32;100.00
14041;BME280;7095;51.388;6.196;2023-04-07T00:10:22;115728.34;;;-145.32;100.00
14041;BME280;7095;51.388;6.196;2023-04-07T00:12:51;115728.34;;;-145.32;100.00
14041;BME280;7095;51.388;6.196;2023-04-07T00:15:21;115728.34;;;-145.32;100.00
14041;BME280;7095;51.388;6.196;2023-04-07T00:17:49;115728.34;;;-145.32;100.00
14041;BME280;7095;51.388;6.196;2023-04-07T00:20:18;115728.34;;;-145.32;100.00
14041;BME280;7095;51.388;6.196;2023-04-07T00:22:47;115728.34;;;-145.32;100.00
14041;BME280;7095;51.388;6.196;2023-04-07T00:25:15;115726.31;;;-145.32;100.00
14041;BME280;7095;51.388;6.196;2023-04-07T00:27:44;115726.31;;;-145.32;100.00
14041;BME280;7095;51.388;6.196;2023-04-07T00:30:12;115726.31;;;-145.32;100.00
14041;BME280;7095;51.388;6.196;2023-04-07T00:32:43;115726.31;;;-145.32;100.00
14041;BME280;7095;51.388;6.196;2023-04-07T00:35:12;115726.31;;;-145.32;100.00
14041;BME280;7095;51.388;6.196;2023-04-07T00:37:41;115467.22;;;-145.32;100.00
14041;BME280;7095;51.388;6.196;2023-04-07T00:40:10;115467.22;;;-145.32;100.00
14041;BME280;7095;51.388;6.196;2023-04-07T00:42:39;115467.22;;;-145.32;100.00
14041;BME280;7095;51.388;6.196;2023-04-07T00:45:09;115467.22;;;-145.32;100.00
14041;BME280;7095;51.388;6.196;2023-04-07T00:47:38;115467.22;;;-145.32;100.00
14041;BME280;7095;51.388;6.196;2023-04-07T00:50:09;115467.22;;;-145.32;100.00
14041;BME280;7095;51.388;6.196;2023-04-07T00:52:38;115467.22;;;-145.32;100.00
14041;BME280;7095;51.388;6.196;2023-04-07T00:55:08;115467.22;;;-145.32;100.00
14041;BME280;7095;51.388;6.196;2023-04-07T00:57:36;115467.22;;;-145.32;100.00
14041;BME280;7095;51.388;6.196;2023-04-07T01:00:06;115208.13;;;-145.32;100.00
14041;BME280;7095;51.388;6.196;2023-04-07T01:02:40;115208.13;;;-145.32;100.00
14041;BME280;7095;51.388;6.196;2023-04-07T01:05:16;115208.13;;;-145.32;100.00
14041;BME280;7095;51.388;6.196;2023-04-07T01:07:56;115208.13;;;-145.32;100.00
14041;BME280;7095;51.388;6.196;2023-04-07T01:10:39;115208.13;;;-145.32;100.00
14041;BME280;7095;51.388;6.196;2023-04-07T01:13:22;115467.22;;;-145.32;100.00
14041;BME280;7095;51.388;6.196;2023-04-07T01:15:57;115208.13;;;-145.32;100.00
14041;BME280;7095;51.388;6.196;2023-04-07T01:18:32;115208.13;;;-145.32;100.00
14041;BME280;7095;51.388;6.196;2023-04-07T01:21:05;115208.13;;;-145.32;100.00
14041;BME280;7095;51.388;6.196;2023-04-07T01:24:00;114949.09;;;-145.32;100.00
14041;BME280;7095;51.388;6.196;2023-04-07T01:26:36;114949.09;;;-145.32;100.00
14041;BME280;7095;51.388;6.196;2023-04-07T01:29:38;114690.03;;;-145.32;100.00
14041;BME280;7095;51.388;6.196;2023-04-07T01:32:14;114431.03;;;-145.32;100.00
14041;BME280;7095;51.388;6.196;2023-04-07T01:34:47;114431.03;;;-145.32;100.00
14041;BME280;7095;51.388;6.196;2023-04-07T01:37:17;113654.06;;;-145.32;100.00
14041;BME280;7095;51.388;6.196;2023-04-07T01:39:46;113654.06;;;-145.32;100.00
14041;BME280;7095;51.388;6.196;2023-04-07T01:42:16;113913.03;;;-145.32;100.00
14041;BME280;7095;51.388;6.196;2023-04-07T01:44:47;113654.06;;;-145.32;100.00
14041;BME280;7095;51.388;6.196;2023-04-07T01:47:15;113913.03;;;-145.32;100.00
14041;BME280;7095;51.388;6.196;2023-04-07T01:49:46;113395.13;;;-145.32;100.00
14041;BME280;7095;51.388;6.196;2023-04-07T01:52:15;112877.31;;;-145.32;100.00
14041;BME280;7095;51.388;6.196;2023-04-07T01:54:45;113136.22;;;-145.32;100.00
14041;BME280;7095;51.388;6.196;2023-04-07T01:57:14;112877.31;;;-145.32;100.00
14041;BME280;7095;51.388;6.196;2023-04-07T01:59:43;112877.31;;;-145.32;100.00
14041;BME280;7095;51.388;6.196;2023-04-07T02:02:13;112877.31;;;-145.32;100.00
14041;BME280;7095;51.388;6.196;2023-04-07T02:04:49;112877.31;;;-145.32;100.00
14041;BME280;7095;51.388;6.196;2023-04-07T02:07:20;112359.53;;;-145.32;100.00
14041;BME280;7095;51.388;6.196;2023-04-07T02:09:50;112359.53;;;-145.32;100.00
14041;BME280;7095;51.388;6.196;2023-04-07T02:12:24;111841.88;;;-145.32;100.00
14041;BME280;7095;51.388;6.196;2023-04-07T02:15:08;111324.28;;;-145.32;100.00
14041;BME280;7095;51.388;6.196;2023-04-07T02:17:45;110806.75;;;-145.32;100.00
14041;BME280;7095;51.388;6.196;2023-04-07T02:20:15;110289.28;;;-145.32;100.00
14041;BME280;7095;51.388;6.196;2023-04-07T02:22:45;110030.59;;;-145.32;100.00
14041;BME280;7095;51.388;6.196;2023-04-07T02:25:21;110289.28;;;-145.32;100.00
14041;BME280;7095;51.388;6.196;2023-04-07T02:27:52;109771.94;;;-145.32;100.00
14041;BME280;7095;51.388;6.196;2023-04-07T02:30:21;109513.28;;;-145.32;100.00
14041;BME280;7095;51.388;6.196;2023-04-07T02:32:52;109771.94;;;-145.32;100.00
14041;BME280;7095;51.388;6.196;2023-04-07T02:35:21;109771.94;;;-145.32;100.00
14041;BME280;7095;51.388;6.196;2023-04-07T02:37:50;109513.28;;;-145.32;100.00
14041;BME280;7095;51.388;6.196;2023-04-07T02:40:19;109771.94;;;-145.32;100.00
14041;BME280;7095;51.388;6.196;2023-04-07T02:42:47;109771.94;;;-145.32;100.00
14041;BME280;7095;51.388;6.196;2023-04-07T02:45:15;109513.28;;;-145.32;100.00
14041;BME280;7095;51.388;6.196;2023-04-07T02:47:44;109254.63;;;-145.32;100.00
14041;BME280;7095;51.388;6.196;2023-04-07T02:50:14;109254.63;;;-145.32;100.00
14041;BME280;7095;51.388;6.196;2023-04-07T02:52:43;108996.00;;;-145.32;100.00
14041;BME280;7095;51.388;6.196;2023-04-07T02:55:13;108996.00;;;-145.32;100.00
14041;BME280;7095;51.388;6.196;2023-04-07T02:57:42;108737.41;;;-145.32;100.00
14041;BME280;7095;51.388;6.196;2023-04-07T03:00:33;108478.84;;;-145.32;100.00
14041;BME280;7095;51.388;6.196;2023-04-07T03:03:18;108478.84;;;-145.32;100.00
14041;BME280;7095;51.388;6.196;2023-04-07T03:06:09;108220.28;;;-145.32;100.00
14041;BME280;7095;51.388;6.196;2023-04-07T03:08:47;108478.84;;;-145.32;100.00
14041;BME280;7095;51.388;6.196;2023-04-07T03:11:16;107961.72;;;-145.32;100.00
14041;BME280;7095;51.388;6.196;2023-04-07T03:13:45;108220.28;;;-145.32;100.00
14041;BME280;7095;51.388;6.196;2023-04-07T03:16:14;107703.22;;;-145.32;100.00
14041;BME280;7095;51.388;6.196;2023-04-07T03:18:56;107703.22;;;-145.32;100.00
14041;BME280;7095;51.388;6.196;2023-04-07T03:21:27;107186.22;;;-145.32;100.00
14041;BME280;7095;51.388;6.196;2023-04-07T03:23:58;107444.69;;;-145.32;100.00
14041;BME280;7095;51.388;6.196;2023-04-07T03:26:26;107444.69;;;-145.32;100.00
14041;BME280;7095;51.388;6.196;2023-04-07T03:28:55;106927.75;;;-145.32;100.00
14041;BME280;7095;51.388;6.196;2023-04-07T03:31:24;107444.69;;;-145.32;100.00
14041;BME280;7095;51.388;6.196;2023-04-07T03:33:53;107186.22;;;-145.32;100.00
14041;BME280;7095;51.388;6.196;2023-04-07T03:36:22;107186.22;;;-145.32;100.00
14041;BME280;7095;51.388;6.196;2023-04-07T03:38:53;107186.22;;;-145.32;100.00
14041;BME280;7095;51.388;6.196;2023-04-07T03:41:22;107703.22;;;-145.32;100.00
14041;BME280;7095;51.388;6.196;2023-04-07T03:43:50;107444.69;;;-145.32;100.00
14041;BME280;7095;51.388;6.196;2023-04-07T03:46:19;107703.22;;;-145.32;100.00
14041;BME280;7095;51.388;6.196;2023-04-07T03:48:48;107703.22;;;-145.32;100.00
14041;BME280;7095;51.388;6.196;2023-04-07T03:51:19;107961.72;;;-145.32;100.00
14041;BME280;7095;51.388;6.196;2023-04-07T03:53:53;107703.22;;;-145.32;100.00
14041;BME280;7095;51.388;6.196;2023-04-07T03:56:42;107961.72;;;-145.32;100.00
14041;BME280;7095;51.388;6.196;2023-04-07T03:59:13;107961.72;;;-145.32;100.00
14041;BME280;7095;51.388;6.196;2023-04-07T04:01:51;107961.72;;;-145.32;100.00
14041;BME280;7095;51.388;6.196;2023-04-07T04:04:20;108220.28;;;-145.32;100.00
14041;BME280;7095;51.388;6.196;2023-04-07T04:06:51;108220.28;;;-145.32;100.00
14041;BME280;7095;51.388;6.196;2023-04-07T04:09:28;108220.28;;;-145.32;100.00
14041;BME280;7095;51.388;6.196;2023-04-07T04:11:57;108478.84;;;-145.32;100.00
14041;BME280;7095;51.388;6.196;2023-04-07T04:14:29;108478.84;;;-145.32;100.00
14041;BME280;7095;51.388;6.196;2023-04-07T04:17:00;108737.41;;;-145.32;100.00
14041;BME280;7095;51.388;6.196;2023-04-07T04:19:37;108737.41;;;-145.32;100.00
14041;BME280;7095;51.388;6.196;2023-04-07T04:22:13;108737.41;;;-145.32;100.00
14041;BME280;7095;51.388;6.196;2023-04-07T04:24:50;108737.41;;;-145.32;100.00
14041;BME280;7095;51.388;6.196;2023-04-07T04:27:20;108996.00;;;-145.32;100.00
14041;BME280;7095;51.388;6.196;2023-04-07T04:29:53;108996.00;;;-145.32;100.00
14041;BME280;7095;51.388;6.196;2023-04-07T04:32:32;108996.00;;;-145.32;100.00
14041;BME280;7095;51.388;6.196;2023-04-07T04:35:01;109254.63;;;-145.32;100.00
14041;BME280;7095;51.388;6.196;2023-04-07T04:37:33;108478.84;;;-145.32;100.00
14041;BME280;7095;51.388;6.196;2023-04-07T04:40:09;108996.00;;;-145.32;100.00
14041;BME280;7095;51.388;6.196;2023-04-07T04:42:39;108737.41;;;-145.32;100.00
14041;BME280;7095;51.388;6.196;2023-04-07T04:45:10;108737.41;;;-145.32;100.00
14041;BME280;7095;51.388;6.196;2023-04-07T04:47:43;108737.41;;;-145.32;100.00
14041;BME280;7095;51.388;6.196;2023-04-07T04:50:12;108737.41;;;-145.32;100.00
14041;BME280;7095;51.388;6.196;2023-04-07T04:52:43;108737.41;;;-145.32;100.00
14041;BME280;7095;51.388;6.196;2023-04-07T04:55:19;108737.41;;;-145.32;100.00
14041;BME280;7095;51.388;6.196;2023-04-07T04:57:48;108478.84;;;-145.32;100.00
14041;BME280;7095;51.388;6.196;2023-04-07T05:00:23;108478.84;;;-145.32;100.00
14041;BME280;7095;51.388;6.196;2023-04-07T05:02:57;108478.84;;;-145.32;100.00
14041;BME280;7095;51.388;6.196;2023-04-07T05:05:26;108478.84;;;-145.32;100.00
14041;BME280;7095;51.388;6.196;2023-04-07T05:07:55;108478.84;;;-145.32;100.00
14041;BME280;7095;51.388;6.196;2023-04-07T05:10:30;108737.41;;;-145.32;100.00
14041;BME280;7095;51.388;6.196;2023-04-07T05:12:58;108737.41;;;-145.32;100.00
14041;BME280;7095;51.388;6.196;2023-04-07T05:15:27;108996.00;;;-145.32;100.00
14041;BME280;7095;51.388;6.196;2023-04-07T05:17:56;109254.63;;;-145.32;100.00
14041;BME280;7095;51.388;6.196;2023-04-07T05:20:26;109513.28;;;-145.32;100.00
14041;BME280;7095;51.388;6.196;2023-04-07T05:22:55;110030.59;;;-145.32;100.00
14041;BME280;7095;51.388;6.196;2023-04-07T05:25:31;110289.28;;;-145.32;100.00
14041;BME280;7095;51.388;6.196;2023-04-07T05:28:03;110289.28;;;-145.32;100.00
14041;BME280;7095;51.388;6.196;2023-04-07T05:30:32;110289.28;;;-145.32;100.00
14041;BME280;7095;51.388;6.196;2023-04-07T05:33:00;110548.00;;;-145.32;100.00
14041;BME280;7095;51.388;6.196;2023-04-07T05:35:40;110548.00;;;-145.32;100.00
14041;BME280;7095;51.388;6.196;2023-04-07T05:38:12;110548.00;;;-145.32;100.00
14041;BME280;7095;51.388;6.196;2023-04-07T05:40:42;110289.28;;;-145.32;100.00
14041;BME280;7095;51.388;6.196;2023-04-07T05:43:17;110548.00;;;-145.32;100.00
14041;BME280;7095;51.388;6.196;2023-04-07T05:45:46;110548.00;;;-145.32;100.00
14041;BME280;7095;51.388;6.196;2023-04-07T05:48:14;110548.00;;;-145.32;100.00
14041;BME280;7095;51.388;6.196;2023-04-07T05:50:46;109771.94;;;-145.32;100.00
14041;BME280;7095;51.388;6.196;2023-04-07T05:53:17;109771.94;;;-145.32;100.00
14041;BME280;7095;51.388;6.196;2023-04-07T05:55:47;109254.63;;;-145.32;100.00
14041;BME280;7095;51.388;6.196;2023-04-07T05:58:28;109254.63;;;-145.32;100.00
14041;BME280;7095;51.388;6.196;2023-04-07T06:00:57;108996.00;;;-145.32;100.00
14041;BME280;7095;51.388;6.196;2023-04-07T06:03:26;109254.63;;;-145.32;100.00
14041;BME280;7095;51.388;6.196;2023-04-07T06:06:07;108996.00;;;-145.32;100.00
14041;BME280;7095;51.388;6.196;2023-04-07T06:08:36;109254.63;;;-145.32;100.00
14041;BME280;7095;51.388;6.196;2023-04-07T06:11:06;109513.28;;;-145.32;100.00
14041;BME280;7095;51.388;6.196;2023-04-07T06:13:34;109771.94;;;-145.32;100.00
14041;BME280;7095;51.388;6.196;2023-04-07T06:16:03;109771.94;;;-145.32;100.00
14041;BME280;7095;51.388;6.196;2023-04-07T06:18:32;109254.63;;;-145.32;100.00
14041;BME280;7095;51.388;6.196;2023-04-07T06:21:01;109254.63;;;-145.32;100.00
14041;BME280;7095;51.388;6.196;2023-04-07T06:23:29;109771.94;;;-145.32;100.00
14041;BME280;7095;51.388;6.196;2023-04-07T06:25:57;109513.28;;;-145.32;100.00
14041;BME280;7095;51.388;6.196;2023-04-07T06:28:30;108996.00;;;-145.32;100.00
14041;BME280;7095;51.388;6.196;2023-04-07T06:30:58;108996.00;;;-145.32;100.00
14041;BME280;7095;51.388;6.196;2023-04-07T06:33:27;108737.41;;;-145.32;100.00
14041;BME280;7095;51.388;6.196;2023-04-07T06:35:56;108737.41;;;-145.32;100.00
14041;BME280;7095;51.388;6.196;2023-04-07T06:38:24;108478.84;;;-145.32;100.00
14041;BME280;7095;51.388;6.196;2023-04-07T06:40:53;108478.84;;;-145.32;100.00
14041;BME280;7095;51.388;6.196;2023-04-07T06:43:21;107961.72;;;-145.32;100.00
14041;BME280;7095;51.388;6.196;2023-04-07T06:45:58;107961.72;;;-145.32;100.00
14041;BME280;7095;51.388;6.196;2023-04-07T06:48:26;108220.28;;;-145.32;100.00
14041;BME280;7095;51.388;6.196;2023-04-07T06:50:55;107961.72;;;-145.32;100.00
14041;BME280;7095;51.388;6.196;2023-04-07T06:53:24;108478.84;;;-145.32;100.00
14041;BME280;7095;51.388;6.196;2023-04-07T06:56:02;108737.41;;;-145.32;100.00
14041;BME280;7095;51.388;6.196;2023-04-07T06:58:30;107703.22;;;-145.32;100.00
14041;BME280;7095;51.388;6.196;2023-04-07T07:01:01;107444.69;;;-145.32;100.00
14041;BME280;7095;51.388;6.196;2023-04-07T07:03:29;107444.69;;;-145.32;100.00
14041;BME280;7095;51.388;6.196;2023-04-07T07:05:59;107961.72;;;-145.32;100.00
14041;BME280;7095;51.388;6.196;2023-04-07T07:08:28;107444.69;;;-145.32;100.00
14041;BME280;7095;51.388;6.196;2023-04-07T07:10:57;107961.72;;;-145.32;100.00
14041;BME280;7095;51.388;6.196;2023-04-07T07:13:27;107186.22;;;-145.32;100.00
14041;BME280;7095;51.388;6.196;2023-04-07T07:15:56;107186.22;;;-145.32;100.00
14041;BME280;7095;51.388;6.196;2023-04-07T07:18:26;106927.75;;;-145.32;100.00
14041;BME280;7095;51.388;6.196;2023-04-07T07:20:57;106669.31;;;-145.32;100.00
14041;BME280;7095;51.388;6.196;2023-04-07T07:23:28;107444.69;;;-145.32;100.00
14041;BME280;7095;51.388;6.196;2023-04-07T07:25:56;106410.88;;;-145.32;100.00
14041;BME280;7095;51.388;6.196;2023-04-07T07:28:25;105894.09;;;-145.32;100.00
14041;BME280;7095;51.388;6.196;2023-04-07T07:30:55;105635.72;;;-145.32;100.00
14041;BME280;7095;51.388;6.196;2023-04-07T07:33:23;106410.88;;;-145.32;100.00
14041;BME280;7095;51.388;6.196;2023-04-07T07:35:53;105894.09;;;-145.32;100.00
14041;BME280;7095;51.388;6.196;2023-04-07T07:38:22;104860.72;;;-145.32;100.00
14041;BME280;7095;51.388;6.196;2023-04-07T07:40:50;104602.44;;;-145.32;100.00
14041;BME280;7095;51.388;6.196;2023-04-07T07:43:19;105377.34;;;-145.32;100.00
14041;BME280;7095;51.388;6.196;2023-04-07T07:45:48;103827.66;;;-145.32;100.00
14041;BME280;7095;51.388;6.196;2023-04-07T07:48:16;103827.66;;;-145.32;100.00
14041;BME280;7095;51.388;6.196;2023-04-07T07:50:45;103827.66;;;-145.32;100.00
14041;BME280;7095;51.388;6.196;2023-04-07T07:53:16;102278.66;;;-145.32;100.00
14041;BME280;7095;51.388;6.196;2023-04-07T07:55:45;102020.53;;;-145.32;100.00
14041;BME280;7095;51.388;6.196;2023-04-07T07:58:14;101504.38;;;-145.32;100.00
14041;BME280;7095;51.388;6.196;2023-04-07T08:00:42;102536.75;;;-145.32;100.00
14041;BME280;7095;51.388;6.196;2023-04-07T08:03:11;102020.53;;;-145.32;100.00
14041;BME280;7095;51.388;6.196;2023-04-07T08:05:39;99698.47;;;-145.32;100.00
14041;BME280;7095;51.388;6.196;2023-04-07T08:08:08;99440.56;;;-145.32;100.00
14041;BME280;7095;51.388;6.196;2023-04-07T08:10:38;99956.41;;;-145.32;100.00
14041;BME280;7095;51.388;6.196;2023-04-07T08:13:06;98409.13;;;-145.32;100.00
14041;BME280;7095;51.388;6.196;2023-04-07T08:15:35;97893.50;;;-145.32;100.00
14041;BME280;7095;51.388;6.196;2023-04-07T08:18:03;98924.81;;;-145.32;100.00
14041;BME280;7095;51.388;6.196;2023-04-07T08:20:33;98409.13;;;-145.32;100.00
14041;BME280;7095;51.388;6.196;2023-04-07T08:23:02;96862.50;;;-145.32;100.00
14041;BME280;7095;51.388;6.196;2023-04-07T08:25:31;97377.97;;;-145.32;100.00
14041;BME280;7095;51.388;6.196;2023-04-07T08:28:00;97377.97;;;-145.32;100.00
14041;BME280;7095;51.388;6.196;2023-04-07T08:30:29;98666.94;;;-145.32;100.00
14041;BME280;7095;51.388;6.196;2023-04-07T08:32:58;98666.94;;;-145.32;100.00
14041;BME280;7095;51.388;6.196;2023-04-07T08:35:27;96604.81;;;-145.32;100.00
14041;BME280;7095;51.388;6.196;2023-04-07T08:37:55;98151.31;;;-145.32;100.00
14041;BME280;7095;51.388;6.196;2023-04-07T08:40:24;97893.50;;;-145.32;100.00
14041;BME280;7095;51.388;6.196;2023-04-07T08:42:52;96862.50;;;-145.32;100.00
14041;BME280;7095;51.388;6.196;2023-04-07T08:45:24;98151.31;;;-145.32;100.00
14041;BME280;7095;51.388;6.196;2023-04-07T08:47:54;98409.13;;;-145.32;100.00
14041;BME280;7095;51.388;6.196;2023-04-07T08:50:25;96089.47;;;-145.32;100.00
14041;BME280;7095;51.388;6.196;2023-04-07T08:52:55;96604.81;;;-145.32;100.00
14041;BME280;7095;51.388;6.196;2023-04-07T08:55:24;97120.22;;;-145.32;100.00
14041;BME280;7095;51.388;6.196;2023-04-07T08:57:53;98409.13;;;-145.32;100.00
14041;BME280;7095;51.388;6.196;2023-04-07T09:00:24;95059.00;;;-145.32;100.00
14041;BME280;7095;51.388;6.196;2023-04-07T09:02:53;95316.59;;;-145.32;100.00
14041;BME280;7095;51.388;6.196;2023-04-07T09:05:22;94801.44;;;-145.32;100.00
14041;BME280;7095;51.388;6.196;2023-04-07T09:07:51;95316.59;;;-145.32;100.00
14041;BME280;7095;51.388;6.196;2023-04-07T09:10:20;93771.38;;;-145.32;100.00
14041;BME280;7095;51.388;6.196;2023-04-07T09:12:48;91454.81;;;-145.32;100.00
14041;BME280;7095;51.388;6.196;2023-04-07T09:15:17;90682.97;;;-145.32;100.00
14041;BME280;7095;51.388;6.196;2023-04-07T09:17:47;93256.44;;;-145.32;100.00
14041;BME280;7095;51.388;6.196;2023-04-07T09:20:17;88111.41;;;-145.32;100.00
14041;BME280;7095;51.388;6.196;2023-04-07T09:22:45;89654.13;;;-145.32;100.00
14041;BME280;7095;51.388;6.196;2023-04-07T09:25:15;91197.50;;;-145.32;100.00
14041;BME280;7095;51.388;6.196;2023-04-07T09:28:02;86569.41;;;-145.32;100.00
14041;BME280;7095;51.388;6.196;2023-04-07T09:30:32;80151.75;;;-145.32;100.00
14041;BME280;7095;51.388;6.196;2023-04-07T09:33:04;82974.03;;;-145.32;100.00
14041;BME280;7095;51.388;6.196;2023-04-07T09:35:50;84514.44;;;-145.32;100.00
14041;BME280;7095;51.388;6.196;2023-04-07T09:38:19;80921.25;;;-145.32;100.00
14041;BME280;7095;51.388;6.196;2023-04-07T09:40:48;84257.66;;;-145.32;100.00
14041;BME280;7095;51.388;6.196;2023-04-07T09:43:18;79895.28;;;-145.32;100.00
14041;BME280;7095;51.388;6.196;2023-04-07T09:45:46;74514.09;;;-145.32;100.00
14041;BME280;7095;51.388;6.196;2023-04-07T09:48:19;76306.91;;;-145.32;100.00
14041;BME280;7095;51.388;6.196;2023-04-07T09:50:48;76819.28;;;-145.32;100.00
14041;BME280;7095;51.388;6.196;2023-04-07T09:53:17;75794.56;;;-145.32;100.00
14041;BME280;7095;51.388;6.196;2023-04-07T09:55:46;79382.44;;;-145.32;100.00
14041;BME280;7095;51.388;6.196;2023-04-07T09:58:16;78869.66;;;-145.32;100.00
14041;BME280;7095;51.388;6.196;2023-04-07T10:00:45;67256.50;;;-145.32;100.00
14041;BME280;7095;51.388;6.196;2023-04-07T10:03:14;66623.78;;;-145.32;100.00
14041;BME280;7095;51.388;6.196;2023-04-07T10:05:44;66318.44;;;-145.32;100.00
14041;BME280;7095;51.388;6.196;2023-04-07T10:08:14;64985.66;;;-145.32;100.00
14041;BME280;7095;51.388;6.196;2023-04-07T10:10:43;64243.69;;;-145.32;100.00
14041;BME280;7095;51.388;6.196;2023-04-07T10:13:13;65137.25;;;-145.32;100.00
14041;BME280;7095;51.388;6.196;2023-04-07T10:15:42;63398.16;;;-145.32;100.00
14041;BME280;7095;51.388;6.196;2023-04-07T10:18:11;60709.50;;;-145.32;100.00
14041;BME280;7095;51.388;6.196;2023-04-07T10:20:41;62427.28;;;-145.32;100.00
14041;BME280;7095;51.388;6.196;2023-04-07T10:23:16;62883.78;;;-145.32;100.00
14041;BME280;7095;51.388;6.196;2023-04-07T10:25:48;59972.44;;;-145.32;100.00
14041;BME280;7095;51.388;6.196;2023-04-07T10:28:20;61586.22;;;-145.32;100.00
14041;BME280;7095;51.388;6.196;2023-04-07T10:30:51;60924.69;;;-145.32;100.00
14041;BME280;7095;51.388;6.196;2023-04-07T10:33:44;59548.19;;;-145.32;100.00
14041;BME280;7095;51.388;6.196;2023-04-07T10:36:16;58996.56;;;-145.32;100.00
14041;BME280;7095;51.388;6.196;2023-04-07T10:39:20;58538.59;;;-145.32;100.00
14041;BME280;7095;51.388;6.196;2023-04-07T10:41:49;58343.50;;;-145.32;100.00
14041;BME280;7095;51.388;6.196;2023-04-07T10:44:45;57640.78;;;-145.32;100.00
14041;BME280;7095;51.388;6.196;2023-04-07T10:47:16;58178.25;;;-145.32;100.00
14041;BME280;7095;51.388;6.196;2023-04-07T10:50:14;58833.28;;;-145.32;100.00
14041;BME280;7095;51.388;6.196;2023-04-07T10:52:45;59560.16;;;-145.32;100.00
14041;BME280;7095;51.388;6.196;2023-04-07T10:55:36;60344.94;;;-145.32;100.00
14041;BME280;7095;51.388;6.196;2023-04-07T10:58:26;59751.34;;;-145.32;100.00
14041;BME280;7095;51.388;6.196;2023-04-07T11:01:18;58158.34;;;-145.32;100.00
14041;BME280;7095;51.388;6.196;2023-04-07T11:03:57;59032.41;;;-145.32;100.00
14041;BME280;7095;51.388;6.196;2023-04-07T11:06:27;59273.38;;;-145.32;100.00
14041;BME280;7095;51.388;6.196;2023-04-07T11:08:56;59950.53;;;-145.32;100.00
14041;BME280;7095;51.388;6.196;2023-04-07T11:11:37;57125.28;;;-145.32;100.00
14041;BME280;7095;51.388;6.196;2023-04-07T11:14:07;57734.34;;;-145.32;100.00
14041;BME280;7095;51.388;6.196;2023-04-07T11:16:40;57684.56;;;-145.32;100.00
14041;BME280;7095;51.388;6.196;2023-04-07T11:19:09;58088.66;;;-145.32;100.00
14041;BME280;7095;51.388;6.196;2023-04-07T11:21:38;58317.59;;;-145.32;100.00
14041;BME280;7095;51.388;6.196;2023-04-07T11:24:07;58007.03;;;-145.32;100.00
14041;BME280;7095;51.388;6.196;2023-04-07T11:26:38;58214.09;;;-145.32;100.00
14041;BME280;7095;51.388;6.196;2023-04-07T11:29:07;58261.88;;;-145.32;100.00
14041;BME280;7095;51.388;6.196;2023-04-07T11:31:37;58162.31;;;-145.32;100.00
14041;BME280;7095;51.388;6.196;2023-04-07T11:34:06;58084.69;;;-145.32;100.00
14041;BME280;7095;51.388;6.196;2023-04-07T11:36:38;57302.41;;;-145.32;100.00
14041;BME280;7095;51.388;6.196;2023-04-07T11:39:17;57302.41;;;-145.32;100.00
14041;BME280;7095;51.388;6.196;2023-04-07T11:41:49;57336.25;;;-145.32;100.00
14041;BME280;7095;51.388;6.196;2023-04-07T11:44:18;57513.38;;;-145.32;100.00
14041;BME280;7095;51.388;6.196;2023-04-07T11:46:54;57708.44;;;-145.32;100.00
14041;BME280;7095;51.388;6.196;2023-04-07T11:49:23;57764.19;;;-145.32;100.00
14041;BME280;7095;51.388;6.196;2023-04-07T11:52:00;57895.56;;;-145.32;100.00
14041;BME280;7095;51.388;6.196;2023-04-07T11:54:39;57815.94;;;-145.32;100.00
14041;BME280;7095;51.388;6.196;2023-04-07T11:57:09;57951.31;;;-145.32;100.00
14041;BME280;7095;51.388;6.196;2023-04-07T11:59:39;58050.84;;;-145.32;100.00
14041;BME280;7095;51.388;6.196;2023-04-07T12:02:08;58321.59;;;-145.32;100.00
14041;BME280;7095;51.388;6.196;2023-04-07T12:04:36;57760.22;;;-145.32;100.00
14041;BME280;7095;51.388;6.196;2023-04-07T12:07:07;57282.50;;;-145.32;100.00
14041;BME280;7095;51.388;6.196;2023-04-07T12:09:37;57493.47;;;-145.32;100.00
14041;BME280;7095;51.388;6.196;2023-04-07T12:12:06;57075.53;;;-145.32;100.00
14041;BME280;7095;51.388;6.196;2023-04-07T12:14:38;57471.59;;;-145.32;100.00
14041;BME280;7095;51.388;6.196;2023-04-07T12:17:19;57302.41;;;-145.32;100.00
14041;BME280;7095;51.388;6.196;2023-04-07T12:19:47;57238.72;;;-145.32;100.00
14041;BME280;7095;51.388;6.196;2023-04-07T12:22:16;57218.81;;;-145.32;100.00
14041;BME280;7095;51.388;6.196;2023-04-07T12:24:45;57210.84;;;-145.32;100.00
14041;BME280;7095;51.388;6.196;2023-04-07T12:27:13;57457.66;;;-145.32;100.00
14041;BME280;7095;51.388;6.196;2023-04-07T12:29:43;57740.31;;;-145.32;100.00
14041;BME280;7095;51.388;6.196;2023-04-07T12:32:12;57678.59;;;-145.32;100.00
14041;BME280;7095;51.388;6.196;2023-04-07T12:34:40;57722.38;;;-145.32;100.00
14041;BME280;7095;51.388;6.196;2023-04-07T12:37:10;57853.75;;;-145.32;100.00
14041;BME280;7095;51.388;6.196;2023-04-07T12:39:38;57985.16;;;-145.32;100.00
14041;BME280;7095;51.388;6.196;2023-04-07T12:42:07;57724.38;;;-145.32;100.00
14041;BME280;7095;51.388;6.196;2023-04-07T12:44:37;57726.38;;;-145.32;100.00
14041;BME280;7095;51.388;6.196;2023-04-07T12:47:07;57314.34;;;-145.32;100.00
14041;BME280;7095;51.388;6.196;2023-04-07T12:49:38;57190.97;;;-145.32;100.00
14041;BME280;7095;51.388;6.196;2023-04-07T12:52:06;57145.19;;;-145.32;100.00
14041;BME280;7095;51.388;6.196;2023-04-07T12:54:35;56995.91;;;-145.32;100.00